createdAt,value
2023-01-20T00:01:25.294Z,98543.28
2023-01-20T00:03:54.484Z,98546.84
2023-01-20T00:06:22.094Z,98548.78
2023-01-20T00:08:52.230Z,98558.22
2023-01-20T00:11:19.283Z,98554.19
2023-01-20T00:13:46.506Z,98555.59
2023-01-20T00:16:14.165Z,98558.69
2023-01-20T00:18:41.374Z,98559.50
2023-01-20T00:21:12.848Z,98553.94
2023-01-20T00:23:40.745Z,98553.34
2023-01-20T00:26:12.176Z,98551.09
2023-01-20T00:28:38.919Z,98562.41
2023-01-20T00:31:20.781Z,98557.06
2023-01-20T00:33:49.265Z,98559.44
2023-01-20T00:36:17.816Z,98555.84
2023-01-20T00:38:46.496Z,98555.59
2023-01-20T00:41:13.476Z,98563.31
2023-01-20T00:43:42.223Z,98565.81
2023-01-20T00:46:09.612Z,98567.88
2023-01-20T00:48:36.628Z,98568.47
2023-01-20T00:51:03.729Z,98567.66
2023-01-20T00:53:30.396Z,98573.69
2023-01-20T00:55:57.035Z,98578.13
2023-01-20T00:58:23.746Z,98577.88
2023-01-20T01:00:51.832Z,98580.03
2023-01-20T01:03:18.314Z,98585.25
2023-01-20T01:05:45.384Z,98587.75
2023-01-20T01:08:11.992Z,98586.94
2023-01-20T01:10:38.462Z,98594.66
2023-01-20T01:13:05.745Z,98593.81
2023-01-20T01:15:32.397Z,98593.22
2023-01-20T01:17:59.340Z,98597.09
2023-01-20T01:20:30.190Z,98606.66
2023-01-20T01:22:56.766Z,98602.56
2023-01-20T01:25:23.384Z,98596.00
2023-01-20T01:27:50.733Z,98606.22
2023-01-20T01:30:17.465Z,98609.53
2023-01-20T01:32:44.001Z,98620.97
2023-01-20T01:35:10.341Z,98623.97
2023-01-20T01:37:36.713Z,98627.19
2023-01-20T01:40:04.747Z,98629.72
2023-01-20T01:42:31.417Z,98627.53
2023-01-20T01:45:10.286Z,98631.59
2023-01-20T01:47:40.785Z,98633.59
2023-01-20T01:50:09.437Z,98638.50
2023-01-20T01:52:36.076Z,98637.34
2023-01-20T01:55:02.583Z,98636.53
2023-01-20T01:57:31.831Z,98633.25
2023-01-20T01:59:58.312Z,98628.44
2023-01-20T02:02:26.084Z,98628.69
2023-01-20T02:04:52.669Z,98630.47
2023-01-20T02:07:21.479Z,98617.03
2023-01-20T02:09:47.874Z,98620.22
2023-01-20T02:12:19.740Z,98616.91
2023-01-20T02:14:52.089Z,98615.25
2023-01-20T02:17:25.801Z,98614.28
2023-01-20T02:19:57.978Z,98614.41
2023-01-20T02:23:01.740Z,98610.69
2023-01-20T02:25:52.246Z,98616.53
2023-01-20T02:28:56.411Z,98624.16
2023-01-20T02:32:04.136Z,98622.22
2023-01-20T02:34:59.531Z,98625.66
2023-01-20T02:37:29.946Z,98627.22
2023-01-20T02:40:18.489Z,98621.72
2023-01-20T02:42:50.788Z,98627.94
2023-01-20T02:45:40.872Z,98628.25
2023-01-20T02:48:31.419Z,98632.66
2023-01-20T02:51:03.882Z,98632.78
2023-01-20T02:53:54.592Z,98632.66
2023-01-20T02:56:25.583Z,98631.84
2023-01-20T02:59:06.174Z,98638.47
2023-01-20T03:02:02.449Z,98640.38
2023-01-20T03:04:36.156Z,98631.44
2023-01-20T03:07:04.752Z,98630.03
2023-01-20T03:09:37.686Z,98637.91
2023-01-20T03:12:14.855Z,98639.44
2023-01-20T03:14:41.285Z,98635.03
2023-01-20T03:17:07.783Z,98644.53
2023-01-20T03:19:35.578Z,98640.97
2023-01-20T03:22:02.365Z,98644.44
2023-01-20T03:24:30.262Z,98642.25
2023-01-20T03:26:56.804Z,98648.53
2023-01-20T03:29:23.216Z,98643.88
2023-01-20T03:31:56.793Z,98639.09
2023-01-20T03:34:25.990Z,98638.66
2023-01-20T03:36:54.947Z,98633.75
2023-01-20T03:39:23.180Z,98636.84
2023-01-20T03:42:07.202Z,98637.97
2023-01-20T03:44:45.291Z,98635.22
2023-01-20T03:47:36.687Z,98641.81
2023-01-20T03:50:27.913Z,98651.19
2023-01-20T03:52:59.045Z,98648.13
2023-01-20T03:55:42.271Z,98647.66
2023-01-20T03:58:17.877Z,98649.72
2023-01-20T04:00:47.379Z,98647.47
2023-01-20T04:03:21.441Z,98646.63
2023-01-20T04:05:49.402Z,98641.88
2023-01-20T04:08:20.639Z,98630.47
2023-01-20T04:10:48.542Z,98624.41
2023-01-20T04:13:15.793Z,98621.41
2023-01-20T04:15:44.777Z,98618.78
2023-01-20T04:18:19.883Z,98600.97
2023-01-20T04:20:53.063Z,98591.09
2023-01-20T04:23:36.096Z,98578.00
2023-01-20T04:26:02.508Z,98581.88
2023-01-20T04:28:29.141Z,98575.47
2023-01-20T04:30:57.118Z,98578.09
2023-01-20T04:33:23.552Z,98584.97
2023-01-20T04:35:50.111Z,98590.47
2023-01-20T04:38:16.920Z,98592.50
2023-01-20T04:40:43.348Z,98587.59
2023-01-20T04:43:09.772Z,98597.16
2023-01-20T04:45:36.385Z,98594.06
2023-01-20T04:48:06.533Z,98601.81
2023-01-20T04:50:33.107Z,98600.84
2023-01-20T04:53:00.863Z,98606.44
2023-01-20T04:55:27.309Z,98605.03
2023-01-20T04:57:53.738Z,98606.81
2023-01-20T05:00:20.245Z,98603.81
2023-01-20T05:02:47.559Z,98614.66
2023-01-20T05:05:15.329Z,98619.69
2023-01-20T05:07:42.177Z,98626.78
2023-01-20T05:10:09.711Z,98638.81
2023-01-20T05:12:36.146Z,98641.28
2023-01-20T05:15:02.802Z,98656.19
2023-01-20T05:17:29.144Z,98659.63
2023-01-20T05:19:55.819Z,98666.66
2023-01-20T05:22:22.439Z,98671.88
2023-01-20T05:24:49.021Z,98670.69
2023-01-20T05:27:15.639Z,98685.94
2023-01-20T05:29:42.017Z,98687.34
2023-01-20T05:32:08.520Z,98696.03
2023-01-20T05:34:35.467Z,98701.03
2023-01-20T05:37:01.815Z,98701.25
2023-01-20T05:39:28.195Z,98703.63
2023-01-20T05:41:54.632Z,98706.59
2023-01-20T05:44:21.035Z,98704.69
2023-01-20T05:46:48.426Z,98708.59
2023-01-20T05:49:14.869Z,98711.09
2023-01-20T05:51:41.477Z,98719.78
2023-01-20T05:54:07.821Z,98716.00
2023-01-20T05:56:38.841Z,98730.28
2023-01-20T05:59:05.238Z,98735.56
2023-01-20T06:01:31.901Z,98738.19
2023-01-20T06:03:59.059Z,98744.13
2023-01-20T06:06:25.434Z,98749.63
2023-01-20T06:08:53.422Z,98756.53
2023-01-20T06:11:19.832Z,98757.00
2023-01-20T06:13:49.676Z,98760.56
2023-01-20T06:16:18.160Z,98759.59
2023-01-20T06:18:45.045Z,98762.94
2023-01-20T06:21:11.972Z,98767.47
2023-01-20T06:23:38.566Z,98773.06
2023-01-20T06:26:11.047Z,98765.09
2023-01-20T06:28:37.445Z,98773.53
2023-01-20T06:31:10.160Z,98783.41
2023-01-20T06:33:37.595Z,98784.72
2023-01-20T06:36:05.334Z,98788.53
2023-01-20T06:38:34.039Z,98789.16
2023-01-20T06:41:03.402Z,98799.72
2023-01-20T06:43:30.801Z,98799.47
2023-01-20T06:46:01.372Z,98811.03
2023-01-20T06:48:28.294Z,98817.81
2023-01-20T06:51:02.461Z,98819.94
2023-01-20T06:53:29.049Z,98819.13
2023-01-20T06:55:57.081Z,98826.06
2023-01-20T06:58:24.971Z,98827.13
2023-01-20T07:00:52.119Z,98832.34
2023-01-20T07:03:20.552Z,98842.59
2023-01-20T07:05:57.676Z,98850.06
2023-01-20T07:08:24.072Z,98853.06
2023-01-20T07:10:50.736Z,98858.88
2023-01-20T07:13:17.122Z,98864.72
2023-01-20T07:15:43.671Z,98867.22
2023-01-20T07:18:10.325Z,98881.88
2023-01-20T07:20:36.762Z,98890.94
2023-01-20T07:23:03.456Z,98890.06
2023-01-20T07:25:29.993Z,98902.47
2023-01-20T07:27:56.524Z,98900.22
2023-01-20T07:30:25.637Z,98909.25
2023-01-20T07:32:52.164Z,98926.78
2023-01-20T07:35:18.582Z,98938.81
2023-01-20T07:37:45.356Z,98937.38
2023-01-20T07:40:12.732Z,98947.16
2023-01-20T07:42:39.671Z,98953.13
2023-01-20T07:45:08.777Z,98950.84
2023-01-20T07:47:37.780Z,98958.09
2023-01-20T07:50:04.493Z,98970.97
2023-01-20T07:52:31.125Z,98979.44
2023-01-20T07:54:58.874Z,98975.16
2023-01-20T07:57:28.703Z,98979.94
2023-01-20T07:59:55.099Z,98995.91
2023-01-20T08:02:22.302Z,99011.88
2023-01-20T08:04:48.976Z,99022.94
2023-01-20T08:07:15.423Z,99031.28
2023-01-20T08:09:42.879Z,99037.38
2023-01-20T08:12:09.520Z,99052.88
2023-01-20T08:14:37.868Z,99056.78
2023-01-20T08:17:05.576Z,99061.31
2023-01-20T08:19:32.259Z,99061.09
2023-01-20T08:21:58.615Z,99068.63
2023-01-20T08:24:24.954Z,99082.66
2023-01-20T08:26:51.594Z,99093.78
2023-01-20T08:29:18.038Z,99103.41
2023-01-20T08:31:44.564Z,99112.72
2023-01-20T08:34:11.226Z,99123.81
2023-01-20T08:36:42.685Z,99123.22
2023-01-20T08:39:13.181Z,99132.63
2023-01-20T08:41:43.178Z,99137.41
2023-01-20T08:44:11.929Z,99143.13
2023-01-20T08:46:41.514Z,99150.16
2023-01-20T08:49:12.187Z,99149.44
2023-01-20T08:51:43.225Z,99163.97
2023-01-20T08:54:13.334Z,99165.06
2023-01-20T08:56:39.708Z,99177.72
2023-01-20T08:59:07.084Z,99173.44
2023-01-20T09:01:35.020Z,99173.53
2023-01-20T09:04:06.857Z,99177.34
2023-01-20T09:06:42.542Z,99178.22
2023-01-20T09:09:09.794Z,99186.91
2023-01-20T09:11:36.705Z,99182.97
2023-01-20T09:14:03.681Z,99189.19
2023-01-20T09:16:30.221Z,99195.84
2023-01-20T09:18:57.616Z,99202.63
2023-01-20T09:21:26.662Z,99203.75
2023-01-20T09:23:53.007Z,99202.22
2023-01-20T09:26:34.766Z,99207.81
2023-01-20T09:29:01.668Z,99212.97
2023-01-20T09:31:28.380Z,99203.41
2023-01-20T09:33:54.942Z,99208.66
2023-01-20T09:36:21.345Z,99198.38
2023-01-20T09:38:48.374Z,99192.16
2023-01-20T09:41:28.163Z,99181.06
2023-01-20T09:43:57.308Z,99173.84
2023-01-20T09:46:57.621Z,99167.59
2023-01-20T09:49:36.324Z,99144.97
2023-01-20T09:52:13.332Z,99146.59
2023-01-20T09:54:47.434Z,99142.63
2023-01-20T09:57:18.321Z,99107.81
2023-01-20T09:59:49.747Z,99097.75
2023-01-20T10:02:26.809Z,99093.41
2023-01-20T10:04:59.401Z,99053.81
2023-01-20T10:07:38.749Z,99026.22
2023-01-20T10:10:22.327Z,99006.13
2023-01-20T10:13:11.593Z,98979.31
2023-01-20T10:15:45.335Z,98975.66
2023-01-20T10:18:21.415Z,98929.00
2023-01-20T10:21:01.020Z,98902.34
2023-01-20T10:23:34.331Z,98895.13
2023-01-20T10:26:13.429Z,98895.44
2023-01-20T10:28:46.351Z,98925.16
2023-01-20T10:31:18.669Z,98921.56
2023-01-20T10:33:45.762Z,98912.97
2023-01-20T10:36:21.397Z,98919.44
2023-01-20T10:38:55.779Z,98888.34
2023-01-20T10:41:33.139Z,98878.28
2023-01-20T10:44:02.048Z,98891.75
2023-01-20T10:46:50.582Z,98867.50
2023-01-20T10:49:38.828Z,98867.63
2023-01-20T10:52:36.288Z,98889.28
2023-01-20T10:55:40.602Z,98917.69
2023-01-20T10:58:30.922Z,98882.88
2023-01-20T11:01:03.716Z,98828.31
2023-01-20T11:03:47.104Z,98799.78
2023-01-20T11:06:20.083Z,98799.78
2023-01-20T11:08:46.817Z,98818.16
2023-01-20T11:11:21.029Z,98793.03
2023-01-20T11:13:48.149Z,98785.53
2023-01-20T11:16:21.269Z,98793.25
2023-01-20T11:19:00.024Z,98815.09
2023-01-20T11:21:29.472Z,98826.78
2023-01-20T11:23:59.341Z,98806.09
2023-01-20T11:26:37.950Z,98820.97
2023-01-20T11:29:10.661Z,98854.69
2023-01-20T11:31:37.237Z,98892.53
2023-01-20T11:34:28.969Z,98858.94
2023-01-20T11:37:19.223Z,98823.91
2023-01-20T11:40:02.222Z,98837.22
2023-01-20T11:42:46.264Z,98852.69
2023-01-20T11:45:36.574Z,98858.88
2023-01-20T11:48:16.567Z,98852.59
2023-01-20T11:50:53.840Z,98826.22
2023-01-20T11:53:24.489Z,98811.84
2023-01-20T11:55:58.333Z,98805.91
2023-01-20T11:58:47.680Z,98770.00
2023-01-20T12:01:23.430Z,98784.41
2023-01-20T12:03:52.859Z,98762.31
2023-01-20T12:06:26.294Z,98772.84
2023-01-20T12:09:10.968Z,98792.75
2023-01-20T12:11:51.341Z,98761.50
2023-01-20T12:14:27.601Z,98768.41
2023-01-20T12:17:05.913Z,98771.44
2023-01-20T12:19:52.994Z,98755.03
2023-01-20T12:22:40.180Z,98730.84
2023-01-20T12:25:28.255Z,98743.84
2023-01-20T12:28:14.285Z,98744.78
2023-01-20T12:31:01.380Z,98736.63
2023-01-20T12:33:35.127Z,98742.44
2023-01-20T12:36:19.466Z,98734.50
2023-01-20T12:38:56.702Z,98740.91
2023-01-20T12:42:03.052Z,98732.50
2023-01-20T12:45:02.240Z,98734.00
2023-01-20T12:47:44.054Z,98739.03
2023-01-20T12:50:44.201Z,98730.84
2023-01-20T12:53:33.705Z,98747.25
2023-01-20T12:56:19.427Z,98747.66
2023-01-20T12:59:05.075Z,98744.78
2023-01-20T13:01:58.100Z,98744.16
2023-01-20T13:04:50.016Z,98746.16
2023-01-20T13:07:50.789Z,98746.53
2023-01-20T13:10:32.434Z,98749.56
2023-01-20T13:13:30.038Z,98745.94
2023-01-20T13:16:02.691Z,98743.91
2023-01-20T13:18:48.146Z,98744.28
2023-01-20T13:21:15.374Z,98742.16
2023-01-20T13:23:43.229Z,98750.84
2023-01-20T13:26:09.554Z,98750.59
2023-01-20T13:28:36.611Z,98748.94
2023-01-20T13:31:29.211Z,98746.53
2023-01-20T13:34:21.660Z,98754.88
2023-01-20T13:37:03.228Z,98773.53
2023-01-20T13:39:32.249Z,98772.78
2023-01-20T13:41:59.245Z,98773.00
2023-01-20T13:44:36.507Z,98807.84
2023-01-20T13:47:06.261Z,98871.41
2023-01-20T13:49:51.745Z,98922.63
2023-01-20T13:53:03.815Z,98939.22
2023-01-20T13:55:42.394Z,98925.75
2023-01-20T13:58:18.689Z,98949.53
2023-01-20T14:00:50.249Z,98967.00
2023-01-20T14:03:20.045Z,98970.72
2023-01-20T14:05:55.924Z,98972.41
2023-01-20T14:08:24.346Z,98967.25
2023-01-20T14:11:07.152Z,98966.28
2023-01-20T14:13:33.570Z,98946.03
2023-01-20T14:16:00.114Z,98924.41
2023-01-20T14:18:27.410Z,98914.13
2023-01-20T14:21:30.022Z,98893.19
2023-01-20T14:23:57.504Z,98884.16
2023-01-20T14:26:30.665Z,98884.72
2023-01-20T14:29:00.640Z,98861.28
2023-01-20T14:31:34.831Z,98831.47
2023-01-20T14:34:03.289Z,98825.09
2023-01-20T14:36:32.855Z,98828.00
2023-01-20T14:39:04.010Z,98832.72
2023-01-20T14:41:51.752Z,98840.72
2023-01-20T14:44:24.350Z,98836.59
2023-01-20T14:46:57.924Z,98827.69
2023-01-20T14:49:31.338Z,98829.44
2023-01-20T14:51:58.259Z,98840.53
2023-01-20T14:54:48.845Z,98855.06
2023-01-20T14:57:32.406Z,98874.06
2023-01-20T15:00:04.385Z,98864.41
2023-01-20T15:02:33.855Z,98870.22
2023-01-20T15:05:00.346Z,98872.44
2023-01-20T15:07:26.807Z,98871.06
2023-01-20T15:09:59.874Z,98889.13
2023-01-20T15:12:33.222Z,98891.91
2023-01-20T15:15:11.627Z,98883.63
2023-01-20T15:18:02.080Z,98887.78
2023-01-20T15:20:30.661Z,98889.75
2023-01-20T15:22:57.352Z,98911.25
2023-01-20T15:25:24.056Z,98928.75
2023-01-20T15:27:54.959Z,98937.88
2023-01-20T15:30:25.130Z,98951.88
2023-01-20T15:32:51.977Z,98969.91
2023-01-20T15:35:20.543Z,98985.97
2023-01-20T15:37:47.100Z,98982.53
2023-01-20T15:40:21.426Z,98985.69
2023-01-20T15:42:48.739Z,98992.16
2023-01-20T15:45:16.499Z,99002.75
2023-01-20T15:47:44.596Z,99011.31
2023-01-20T15:50:31.858Z,99026.50
2023-01-20T15:52:58.469Z,99037.66
2023-01-20T15:55:24.900Z,99053.41
2023-01-20T15:57:52.173Z,99071.59
2023-01-20T16:00:24.828Z,99090.78
2023-01-20T16:02:51.673Z,99099.19
2023-01-20T16:05:18.132Z,99100.66
2023-01-20T16:07:45.444Z,99113.72
2023-01-20T16:10:19.161Z,99131.06
2023-01-20T16:12:46.382Z,99147.34
2023-01-20T16:15:15.277Z,99158.22
2023-01-20T16:17:41.871Z,99161.94
2023-01-20T16:20:23.009Z,99170.06
2023-01-20T16:22:49.445Z,99183.69
2023-01-20T16:25:16.506Z,99208.06
2023-01-20T16:27:43.074Z,99227.88
2023-01-20T16:30:21.046Z,99239.31
2023-01-20T16:32:48.190Z,99253.91
2023-01-20T16:35:16.223Z,99284.09
2023-01-20T16:37:46.136Z,99308.56
2023-01-20T16:40:18.307Z,99320.97
2023-01-20T16:42:45.540Z,99303.53
2023-01-20T16:45:23.063Z,99327.03
2023-01-20T16:47:49.426Z,99338.31
2023-01-20T16:50:16.614Z,99363.25
2023-01-20T16:52:43.361Z,99362.94
2023-01-20T16:55:12.429Z,99385.84
2023-01-20T16:57:40.219Z,99408.13
2023-01-20T17:00:10.716Z,99420.72
2023-01-20T17:02:39.604Z,99429.13
2023-01-20T17:05:11.321Z,99446.19
2023-01-20T17:07:37.677Z,99471.53
2023-01-20T17:10:04.358Z,99493.59
2023-01-20T17:12:30.756Z,99526.63
2023-01-20T17:15:00.110Z,99556.97
2023-01-20T17:17:26.565Z,99581.50
2023-01-20T17:19:53.502Z,99620.41
2023-01-20T17:22:20.187Z,99644.22
2023-01-20T17:24:48.026Z,99664.78
2023-01-20T17:27:14.525Z,99683.44
2023-01-20T17:29:41.162Z,99702.06
2023-01-20T17:32:08.597Z,99707.72
2023-01-20T17:34:35.086Z,99726.28
2023-01-20T17:37:01.451Z,99749.03
2023-01-20T17:39:27.915Z,99768.22
2023-01-20T17:41:55.420Z,99791.91
2023-01-20T17:44:21.985Z,99807.53
2023-01-20T17:46:48.951Z,99813.72
2023-01-20T17:49:15.395Z,99817.28
2023-01-20T17:51:42.778Z,99825.34
2023-01-20T17:54:09.306Z,99818.78
2023-01-20T17:56:36.270Z,99825.16
2023-01-20T17:59:03.035Z,99833.97
2023-01-20T18:01:32.327Z,99852.31
2023-01-20T18:04:00.213Z,99868.88
2023-01-20T18:06:29.391Z,99879.44
2023-01-20T18:08:58.855Z,99891.63
2023-01-20T18:11:27.675Z,99892.53
2023-01-20T18:13:56.169Z,99903.22
2023-01-20T18:16:30.074Z,99902.56
2023-01-20T18:18:56.981Z,99904.53
2023-01-20T18:21:24.481Z,99919.66
2023-01-20T18:23:51.839Z,99917.34
2023-01-20T18:26:20.880Z,99914.13
2023-01-20T18:28:50.918Z,99935.19
2023-01-20T18:31:19.863Z,99941.34
2023-01-20T18:33:49.735Z,99949.41
2023-01-20T18:36:19.654Z,99951.53
2023-01-20T18:38:51.544Z,99956.13
2023-01-20T18:41:18.787Z,99961.34
2023-01-20T18:43:46.372Z,99971.81
2023-01-20T18:46:13.838Z,99986.78
2023-01-20T18:48:42.362Z,99653.50
2023-01-20T18:51:09.449Z,99454.56
2023-01-20T18:53:36.363Z,99449.53
2023-01-20T18:56:05.561Z,99442.00
2023-01-20T18:58:33.617Z,99419.41
2023-01-20T19:01:10.950Z,99420.53
2023-01-20T19:03:38.458Z,99412.66
2023-01-20T19:06:09.677Z,99401.47
2023-01-20T19:08:36.659Z,99397.16
2023-01-20T19:11:24.561Z,99397.38
2023-01-20T19:13:52.385Z,99396.88
2023-01-20T19:16:21.169Z,99394.25
2023-01-20T19:18:52.827Z,99393.78
2023-01-20T19:21:20.771Z,99394.03
2023-01-20T19:23:56.527Z,99390.44
2023-01-20T19:26:25.677Z,99381.84
2023-01-20T19:29:00.806Z,99381.56
2023-01-20T19:31:27.463Z,99379.34
2023-01-20T19:33:53.906Z,99377.66
2023-01-20T19:36:20.995Z,99379.75
2023-01-20T19:38:47.720Z,99376.72
2023-01-20T19:41:16.748Z,99381.81
2023-01-20T19:43:44.535Z,99382.03
2023-01-20T19:46:14.136Z,99380.66
2023-01-20T19:48:41.728Z,99380.97
2023-01-20T19:51:14.340Z,99381.69
2023-01-20T19:53:43.149Z,99378.34
2023-01-20T19:56:14.694Z,99379.25
2023-01-20T19:58:44.470Z,99382.75
2023-01-20T20:01:16.900Z,99379.47
2023-01-20T20:03:43.935Z,99381.34
2023-01-20T20:06:30.028Z,99378.00
2023-01-20T20:08:58.623Z,99379.03
2023-01-20T20:11:26.166Z,99381.75
2023-01-20T20:13:58.524Z,99379.53
2023-01-20T20:16:28.538Z,99389.44
2023-01-20T20:18:56.003Z,99387.84
2023-01-20T20:21:24.920Z,99394.88
2023-01-20T20:23:57.234Z,99393.94
2023-01-20T20:26:30.932Z,99391.53
2023-01-20T20:28:59.867Z,99393.28
2023-01-20T20:31:30.272Z,99396.84
2023-01-20T20:33:59.352Z,99397.34
2023-01-20T20:36:29.314Z,99403.59
2023-01-20T20:38:57.159Z,99396.22
2023-01-20T20:41:23.681Z,99407.53
2023-01-20T20:43:50.009Z,99404.38
2023-01-20T20:46:18.564Z,99403.81
2023-01-20T20:48:46.483Z,99403.81
2023-01-20T20:51:16.428Z,99403.91
2023-01-20T20:53:45.404Z,99396.34
2023-01-20T20:56:15.098Z,99398.50
2023-01-20T20:58:59.766Z,99392.34
2023-01-20T21:01:28.818Z,99407.38
2023-01-20T21:03:55.415Z,99400.66
2023-01-20T21:06:21.874Z,99389.38
2023-01-20T21:08:48.396Z,99394.31
2023-01-20T21:11:14.820Z,99388.25
2023-01-20T21:13:41.484Z,99386.47
2023-01-20T21:16:11.794Z,99392.75
2023-01-20T21:18:39.225Z,99409.44
2023-01-20T21:21:11.485Z,99408.81
2023-01-20T21:23:37.931Z,99404.50
2023-01-20T21:26:06.802Z,99409.25
2023-01-20T21:28:34.453Z,99414.59
2023-01-20T21:31:01.619Z,99414.47
2023-01-20T21:33:28.256Z,99417.84
2023-01-20T21:35:54.590Z,99423.25
2023-01-20T21:38:21.091Z,99418.88
2023-01-20T21:40:47.688Z,99419.81
2023-01-20T21:43:14.147Z,99430.06
2023-01-20T21:45:40.550Z,99426.69
2023-01-20T21:48:07.019Z,99437.03
2023-01-20T21:50:33.335Z,99438.38
2023-01-20T21:52:59.671Z,99448.72
2023-01-20T21:55:26.012Z,99452.25
2023-01-20T21:57:52.364Z,99448.16
2023-01-20T22:00:20.139Z,99456.91
2023-01-20T22:02:46.852Z,99466.44
2023-01-20T22:05:13.686Z,99474.94
2023-01-20T22:07:40.416Z,99472.97
2023-01-20T22:10:07.448Z,99476.72
2023-01-20T22:12:34.256Z,99478.38
2023-01-20T22:15:02.087Z,99490.63
2023-01-20T22:17:30.657Z,99500.31
2023-01-20T22:19:57.318Z,99509.72
2023-01-20T22:22:23.958Z,99515.97
2023-01-20T22:24:50.300Z,99510.09
2023-01-20T22:27:16.703Z,99517.09
2023-01-20T22:29:43.040Z,99530.16
2023-01-20T22:32:09.673Z,99530.22
2023-01-20T22:34:36.033Z,99533.88
2023-01-20T22:37:02.466Z,99539.94
2023-01-20T22:39:29.421Z,99544.13
2023-01-20T22:41:55.938Z,99552.25
2023-01-20T22:44:22.345Z,99547.97
2023-01-20T22:46:48.929Z,99551.50
2023-01-20T22:49:15.335Z,99553.38
2023-01-20T22:51:44.927Z,99559.31
2023-01-20T22:54:11.429Z,99553.72
2023-01-20T22:56:37.939Z,99559.84
2023-01-20T22:59:04.353Z,99550.19
2023-01-20T23:01:33.357Z,99554.81
2023-01-20T23:04:02.379Z,99555.00
2023-01-20T23:06:31.196Z,99556.69
2023-01-20T23:08:58.013Z,99549.59
2023-01-20T23:11:24.373Z,99555.00
2023-01-20T23:13:51.413Z,99552.56
2023-01-20T23:16:21.052Z,99555.34
2023-01-20T23:18:48.575Z,99551.72
2023-01-20T23:21:14.932Z,99552.47
2023-01-20T23:23:41.657Z,99563.75
2023-01-20T23:26:17.697Z,99560.38
2023-01-20T23:28:45.325Z,99575.16
2023-01-20T23:31:14.293Z,99573.44
2023-01-20T23:33:44.729Z,99582.88
2023-01-20T23:36:20.387Z,99585.59
2023-01-20T23:38:47.237Z,99595.28
2023-01-20T23:41:14.898Z,99597.88
2023-01-20T23:43:41.773Z,99597.06
2023-01-20T23:46:08.841Z,99600.78
2023-01-20T23:48:35.837Z,99599.91
2023-01-20T23:51:03.592Z,99601.00
2023-01-20T23:53:32.106Z,99606.25
2023-01-20T23:56:01.443Z,99605.66
2023-01-20T23:58:30.374Z,99612.91
